Terminal Aerodrome Forecast
Issued by NWS

Home | Current Version | Previous Version | Text Only | Print | Product List | Glossary On
Versions: 1 2 3 4 5 6 7 8 9 10 11 12 13 14 15 16 17 18
000
FTUS43 KGRR 030530
TAFLAN
TAF
KLAN 030530Z 0306/0406 30008KT P6SM OVC025
     FM031500 26006KT P6SM OVC025
     FM032100 26005KT P6SM BKN035=

USA.gov is the U.S. government's official web portal to all federal, state and local government web resources and services.